Time;durP1;ratioP1;P1;durP2;ratioP2;P2;SDS_P1;SDS_P2;PMS_P1;PMS_P2;Temp;Humidity;BMP_temperature;BMP_pressure;BME280_temperature;BME280_humidity;BME280_pressure;Samples;Min_cycle;Max_cycle;Signal;HPM_P1;HPM_P2
2022/08/12 00:43:38;;;;;;;17.75;16.77;;;;;;;;;;5115348;28;20208;-75
2022/08/12 00:48:51;;;;;;;17.52;16.63;;;;;;;;;;5114828;28;20185;-74
2022/08/12 00:51:19;;;;;;;17.48;16.58;;;;;;;;;;5114962;28;20223;-75
2022/08/12 00:53:46;;;;;;;17.33;16.42;;;;;;;;;;5114610;28;20193;-75
2022/08/12 00:56:14;;;;;;;17.05;16.15;;;;;;;;;;5115552;28;20203;-75
2022/08/12 00:58:46;;;;;;;17.05;16.15;;;;;;;;;;5114799;28;20197;-75
2022/08/12 01:01:16;;;;;;;18.05;17.15;;;;;;;;;;5114489;28;20309;-75
2022/08/12 01:12:04;;;;;;;17.15;16.25;;;;;;;;;;5114352;28;20192;-75
2022/08/12 01:14:32;;;;;;;17.58;16.67;;;;;;;;;;5114535;28;20200;-75
2022/08/12 01:17:00;;;;;;;17.45;16.55;;;;;;;;;;5114498;28;20200;-75
2022/08/12 01:19:27;;;;;;;17.42;16.52;;;;;;;;;;5113936;28;20324;-75
2022/08/12 01:22:04;;;;;;;17.15;16.25;;;;;;;;;;5113922;28;20702;-75
2022/08/12 01:24:47;;;;;;;17.20;16.30;;;;;;;;;;5114373;28;20214;-75
2022/08/12 01:27:14;;;;;;;17.30;16.40;;;;;;;;;;5113915;28;20722;-75
2022/08/12 01:29:42;;;;;;;17.88;16.88;;;;;;;;;;5113808;28;20203;-75
2022/08/12 01:32:11;;;;;;;18.23;17.23;;;;;;;;;;5113840;28;20254;-75
2022/08/12 01:34:39;;;;;;;18.10;17.10;;;;;;;;;;5113724;28;20670;-75
2022/08/12 01:37:07;;;;;;;18.58;17.50;;;;;;;;;;5113693;28;20717;-75
2022/08/12 01:39:37;;;;;;;18.52;17.42;;;;;;;;;;5114083;28;20251;-75
2022/08/12 01:42:07;;;;;;;18.02;17.02;;;;;;;;;;5113844;28;20217;-75
2022/08/12 01:44:36;;;;;;;18.05;17.05;;;;;;;;;;5113682;28;20190;-75
2022/08/12 01:47:05;;;;;;;18.23;17.23;;;;;;;;;;5113855;28;20219;-75
2022/08/12 01:50:01;;;;;;;17.88;16.88;;;;;;;;;;5113464;28;20197;-75
2022/08/12 01:52:33;;;;;;;17.33;16.40;;;;;;;;;;5113070;28;20641;-75
2022/08/12 01:55:01;;;;;;;17.23;16.33;;;;;;;;;;5113313;28;20270;-74
2022/08/12 01:57:38;;;;;;;17.40;16.40;;;;;;;;;;5114442;28;20675;-75
2022/08/12 02:00:06;;;;;;;17.13;16.23;;;;;;;;;;5113416;28;20193;-74
2022/08/12 02:02:37;;;;;;;17.30;16.40;;;;;;;;;;5113204;28;20189;-74
2022/08/12 02:13:54;;;;;;;16.65;15.85;;;;;;;;;;5113485;28;20334;-75
2022/08/12 02:16:30;;;;;;;16.83;16.02;;;;;;;;;;5099924;28;20201;-75
2022/08/12 02:19:13;;;;;;;16.50;15.70;;;;;;;;;;5113025;28;20234;-74
2022/08/12 02:21:42;;;;;;;16.52;15.73;;;;;;;;;;5113083;28;20270;-74
2022/08/12 02:24:10;;;;;;;16.08;15.27;;;;;;;;;;5112890;28;20659;-74
2022/08/12 02:26:40;;;;;;;16.25;15.45;;;;;;;;;;5112737;28;20225;-75
2022/08/12 02:29:07;;;;;;;16.45;15.65;;;;;;;;;;5112823;28;20277;-75
2022/08/12 02:31:37;;;;;;;16.40;15.60;;;;;;;;;;5112679;28;20249;-75
2022/08/12 02:34:04;;;;;;;16.05;15.25;;;;;;;;;;5112688;28;20199;-76
2022/08/12 02:36:31;;;;;;;15.85;15.15;;;;;;;;;;5112677;28;20203;-75
2022/08/12 02:38:59;;;;;;;15.82;15.13;;;;;;;;;;5112625;28;20253;-75
2022/08/12 02:41:26;;;;;;;15.65;14.95;;;;;;;;;;5112864;28;20232;-75
2022/08/12 02:43:55;;;;;;;15.85;15.15;;;;;;;;;;5112448;28;20647;-75
2022/08/12 02:46:26;;;;;;;15.75;15.05;;;;;;;;;;5112867;28;20226;-75
2022/08/12 02:48:57;;;;;;;15.90;15.20;;;;;;;;;;5113284;28;20185;-75
2022/08/12 02:51:33;;;;;;;15.95;15.25;;;;;;;;;;5112670;28;20216;-75
2022/08/12 02:54:02;;;;;;;16.30;15.50;;;;;;;;;;5112712;28;20207;-75
2022/08/12 02:56:29;;;;;;;15.93;15.23;;;;;;;;;;5112580;28;20189;-75
2022/08/12 02:58:57;;;;;;;16.30;15.50;;;;;;;;;;5112384;28;20193;-75
2022/08/12 03:01:27;;;;;;;16.27;15.48;;;;;;;;;;5112423;28;20224;-75
2022/08/12 03:03:57;;;;;;;16.50;15.70;;;;;;;;;;5114244;28;20189;-74
2022/08/12 03:06:27;;;;;;;16.08;15.27;;;;;;;;;;5116950;28;20214;-75
2022/08/12 03:08:56;;;;;;;16.77;15.98;;;;;;;;;;5117198;28;20189;-75
2022/08/12 03:11:25;;;;;;;16.50;15.70;;;;;;;;;;5116647;28;20197;-75
2022/08/12 03:13:53;;;;;;;16.30;15.50;;;;;;;;;;5116602;28;20192;-75
2022/08/12 03:16:20;;;;;;;16.48;15.68;;;;;;;;;;5116445;28;20197;-75
2022/08/12 03:18:48;;;;;;;16.30;15.50;;;;;;;;;;5116637;28;20708;-75
2022/08/12 03:21:17;;;;;;;16.60;15.80;;;;;;;;;;5117221;28;20307;-75
2022/08/12 03:23:45;;;;;;;17.50;16.60;;;;;;;;;;5116214;28;20231;-75
2022/08/12 03:26:13;;;;;;;18.70;17.80;;;;;;;;;;5116550;28;20283;-76
2022/08/12 03:28:55;;;;;;;18.45;17.65;;;;;;;;;;5116492;28;20197;-73
2022/08/12 03:31:23;;;;;;;17.92;17.13;;;;;;;;;;5116195;28;20276;-73
2022/08/12 03:33:50;;;;;;;17.55;16.85;;;;;;;;;;5116311;28;20283;-73
2022/08/12 03:36:19;;;;;;;17.33;16.63;;;;;;;;;;5116098;28;20196;-73
2022/08/12 03:38:59;;;;;;;16.80;16.10;;;;;;;;;;5115965;28;20727;-73
2022/08/12 03:41:34;;;;;;;16.02;15.43;;;;;;;;;;5115994;28;20219;-76
2022/08/12 04:00:35;;;;;;;15.45;14.85;;;;;;;;;;5115934;28;20691;-75
2022/08/12 04:03:02;;;;;;;16.23;15.52;;;;;;;;;;5115543;28;20193;-74
2022/08/12 04:05:29;;;;;;;16.48;15.77;;;;;;;;;;5115510;28;20189;-75
2022/08/12 04:07:58;;;;;;;15.75;15.15;;;;;;;;;;5115468;28;20195;-74
2022/08/12 04:13:14;;;;;;;15.63;15.02;;;;;;;;;;5115330;28;20189;-76
2022/08/12 04:13:18;;;;;;;15.27;14.68;;;;;;;;;;5115351;28;20181;-76
2022/08/12 04:15:46;;;;;;;14.70;14.20;;;;;;;;;;5114887;28;20224;-75
2022/08/12 04:18:14;;;;;;;14.68;14.18;;;;;;;;;;5115219;28;20205;-75
2022/08/12 04:20:42;;;;;;;15.07;14.57;;;;;;;;;;5114958;28;20225;-74
2022/08/12 04:23:12;;;;;;;15.18;14.68;;;;;;;;;;5115465;28;20628;-74
2022/08/12 04:25:40;;;;;;;15.45;14.85;;;;;;;;;;5115120;28;20189;-74
2022/08/12 04:28:07;;;;;;;15.05;14.55;;;;;;;;;;5115062;28;20228;-75
2022/08/12 04:30:34;;;;;;;15.35;14.85;;;;;;;;;;5115244;28;20201;-74
2022/08/12 04:33:02;;;;;;;15.68;15.07;;;;;;;;;;5114944;28;20670;-75
2022/08/12 04:35:28;;;;;;;15.77;15.18;;;;;;;;;;5114904;28;20626;-75
2022/08/12 04:37:56;;;;;;;15.40;14.90;;;;;;;;;;5114832;28;20284;-75
2022/08/12 04:40:25;;;;;;;15.13;14.63;;;;;;;;;;5114798;28;20296;-74
2022/08/12 04:42:52;;;;;;;14.95;14.45;;;;;;;;;;5114947;28;20354;-75
2022/08/12 04:45:19;;;;;;;15.10;14.60;;;;;;;;;;5114736;28;20208;-74
2022/08/12 04:47:46;;;;;;;16.45;15.85;;;;;;;;;;5114944;28;20200;-75
2022/08/12 04:50:15;;;;;;;16.25;15.65;;;;;;;;;;5114584;28;20655;-75
2022/08/12 04:52:42;;;;;;;16.90;16.20;;;;;;;;;;5114568;28;20413;-74
2022/08/12 04:55:09;;;;;;;16.92;16.23;;;;;;;;;;5114824;28;20220;-74
2022/08/12 04:57:38;;;;;;;17.20;16.50;;;;;;;;;;5114522;28;20193;-75
2022/08/12 05:00:08;;;;;;;15.32;14.75;;;;;;;;;;5114375;28;20283;-74
2022/08/12 05:02:35;;;;;;;15.93;15.32;;;;;;;;;;5114707;28;20225;-75
2022/08/12 05:05:03;;;;;;;15.63;15.02;;;;;;;;;;5114356;28;20197;-74
2022/08/12 05:07:30;;;;;;;16.23;15.63;;;;;;;;;;5114282;28;20556;-75
2022/08/12 05:09:57;;;;;;;17.67;16.88;;;;;;;;;;5114265;28;20200;-75
2022/08/12 05:12:24;;;;;;;15.82;15.23;;;;;;;;;;5114109;28;20679;-75
2022/08/12 05:14:53;;;;;;;16.08;15.48;;;;;;;;;;5114173;28;20280;-75
2022/08/12 05:17:20;;;;;;;15.70;15.10;;;;;;;;;;5114320;28;20192;-74
2022/08/12 05:19:46;;;;;;;14.90;14.40;;;;;;;;;;5114008;28;20239;-75
2022/08/12 05:22:14;;;;;;;15.23;14.68;;;;;;;;;;5114220;28;20228;-75
2022/08/12 05:24:40;;;;;;;14.82;14.32;;;;;;;;;;5114265;28;20192;-75
2022/08/12 05:27:07;;;;;;;15.70;15.10;;;;;;;;;;5113110;28;20694;-75
2022/08/12 05:29:34;;;;;;;16.17;15.57;;;;;;;;;;5114109;28;20225;-75
2022/08/12 05:32:03;;;;;;;16.20;15.60;;;;;;;;;;5114143;28;20189;-75
2022/08/12 05:34:31;;;;;;;16.55;15.93;;;;;;;;;;5113771;28;20193;-73
2022/08/12 05:36:58;;;;;;;17.20;16.50;;;;;;;;;;5114307;28;20270;-75
2022/08/12 05:39:25;;;;;;;16.25;15.65;;;;;;;;;;5113693;28;20193;-74
2022/08/12 05:41:52;;;;;;;16.15;15.55;;;;;;;;;;5113585;28;20782;-74
2022/08/12 05:44:19;;;;;;;16.13;15.52;;;;;;;;;;5113876;28;20189;-75
2022/08/12 05:46:46;;;;;;;15.98;15.38;;;;;;;;;;5113532;28;20288;-74
2022/08/12 05:49:15;;;;;;;16.08;15.48;;;;;;;;;;5113463;28;20291;-74
2022/08/12 05:51:42;;;;;;;16.08;15.48;;;;;;;;;;5113769;28;20299;-74
2022/08/12 05:54:09;;;;;;;16.38;15.77;;;;;;;;;;5113382;28;20284;-74
2022/08/12 05:56:36;;;;;;;17.13;16.42;;;;;;;;;;5113335;28;20201;-74
2022/08/12 05:59:06;;;;;;;17.38;16.67;;;;;;;;;;5113264;28;20197;-74
2022/08/12 06:01:33;;;;;;;16.48;15.88;;;;;;;;;;5113483;28;20321;-74
2022/08/12 06:04:00;;;;;;;20.30;19.50;;;;;;;;;;5113541;28;20193;-74
2022/08/12 06:06:34;;;;;;;15.40;14.90;;;;;;;;;;5113455;28;20200;-74
2022/08/12 06:09:01;;;;;;;14.93;14.43;;;;;;;;;;5113151;28;20277;-74
2022/08/12 06:11:28;;;;;;;15.32;14.82;;;;;;;;;;5113022;28;20195;-75
2022/08/12 06:13:57;;;;;;;15.80;15.20;;;;;;;;;;5113049;28;20215;-74
2022/08/12 06:16:24;;;;;;;15.82;15.23;;;;;;;;;;5113236;28;20197;-75
2022/08/12 06:18:51;;;;;;;15.85;15.25;;;;;;;;;;5113179;28;20221;-74
2022/08/12 06:21:20;;;;;;;15.85;15.25;;;;;;;;;;5112861;28;20654;-74
2022/08/12 06:23:49;;;;;;;20.10;19.30;;;;;;;;;;5113200;28;20224;-74
2022/08/12 06:26:19;;;;;;;16.02;15.43;;;;;;;;;;5112875;28;20192;-75
2022/08/12 06:28:47;;;;;;;15.98;15.38;;;;;;;;;;5112758;28;20196;-75
2022/08/12 06:31:15;;;;;;;15.57;14.98;;;;;;;;;;5112795;28;20257;-75
2022/08/12 06:33:43;;;;;;;15.82;15.23;;;;;;;;;;5112938;28;20197;-75
2022/08/12 06:36:10;;;;;;;15.52;14.93;;;;;;;;;;5112696;28;20189;-75
2022/08/12 06:38:37;;;;;;;15.25;14.75;;;;;;;;;;5112445;28;20284;-74
2022/08/12 06:43:52;;;;;;;15.48;14.88;;;;;;;;;;5113222;28;20192;-74
2022/08/12 06:46:20;;;;;;;15.52;14.93;;;;;;;;;;5112499;28;20197;-74
2022/08/12 06:48:48;;;;;;;15.40;14.80;;;;;;;;;;5112471;28;20581;-74
2022/08/12 06:51:19;;;;;;;14.85;14.35;;;;;;;;;;5112801;28;20318;-74
2022/08/12 06:53:46;;;;;;;15.30;14.73;;;;;;;;;;5112475;28;20277;-74
2022/08/12 06:56:15;;;;;;;14.80;14.30;;;;;;;;;;5112379;28;20197;-75
2022/08/12 06:58:43;;;;;;;14.25;13.75;;;;;;;;;;5112404;28;20189;-75
2022/08/12 07:01:10;;;;;;;13.80;13.40;;;;;;;;;;5112298;28;20683;-74
2022/08/12 07:03:37;;;;;;;14.73;14.23;;;;;;;;;;5112633;28;20260;-74
2022/08/12 07:06:05;;;;;;;14.57;14.07;;;;;;;;;;5112274;28;20193;-75
2022/08/12 07:08:33;;;;;;;15.50;14.90;;;;;;;;;;5112275;28;20287;-74
2022/08/12 07:11:01;;;;;;;15.38;14.77;;;;;;;;;;5112303;28;20655;-74
2022/08/12 07:13:37;;;;;;;15.40;14.80;;;;;;;;;;5112250;28;20197;-75
2022/08/12 07:16:05;;;;;;;15.95;15.35;;;;;;;;;;5112299;28;20690;-74
2022/08/12 07:18:32;;;;;;;16.50;15.80;;;;;;;;;;5112263;28;20271;-75
2022/08/12 07:21:00;;;;;;;17.27;16.48;;;;;;;;;;5112313;28;20272;-75
2022/08/12 07:23:27;;;;;;;17.55;16.75;;;;;;;;;;5112077;28;20267;-75
2022/08/12 07:25:55;;;;;;;17.23;16.42;;;;;;;;;;5112209;28;20262;-74
2022/08/12 07:28:23;;;;;;;16.92;16.13;;;;;;;;;;5112532;28;20636;-75
2022/08/12 07:30:53;;;;;;;18.27;17.27;;;;;;;;;;5112202;28;20225;-74
2022/08/12 07:33:21;;;;;;;18.45;17.45;;;;;;;;;;5112099;28;20193;-75
2022/08/12 07:35:49;;;;;;;18.40;17.40;;;;;;;;;;5112116;28;20651;-75
2022/08/12 07:38:24;;;;;;;18.75;17.75;;;;;;;;;;5112040;28;20197;-74
2022/08/12 07:40:51;;;;;;;19.23;18.13;;;;;;;;;;5112006;28;20267;-75
2022/08/12 07:43:18;;;;;;;19.35;18.25;;;;;;;;;;5112261;28;20233;-75
2022/08/12 07:45:45;;;;;;;19.58;18.45;;;;;;;;;;5112168;28;20204;-76
2022/08/12 07:48:14;;;;;;;19.52;18.33;;;;;;;;;;5112470;28;20197;-76
2022/08/12 07:50:41;;;;;;;19.67;18.48;;;;;;;;;;5114727;28;20246;-76
2022/08/12 07:53:07;;;;;;;19.63;18.42;;;;;;;;;;5116076;28;20625;-75
2022/08/12 07:55:35;;;;;;;18.95;17.75;;;;;;;;;;5115737;28;20714;-75
2022/08/12 07:58:02;;;;;;;19.75;18.55;;;;;;;;;;5115942;28;20193;-76
2022/08/12 08:00:30;;;;;;;19.30;18.13;;;;;;;;;;5115870;28;20193;-75
2022/08/12 08:02:57;;;;;;;19.15;17.95;;;;;;;;;;5115766;28;20229;-76
2022/08/12 08:05:27;;;;;;;19.38;18.17;;;;;;;;;;5115547;28;20223;-76
2022/08/12 08:07:54;;;;;;;19.67;18.48;;;;;;;;;;5115815;28;20243;-76
2022/08/12 08:10:21;;;;;;;19.38;18.17;;;;;;;;;;5115371;28;20212;-76
2022/08/12 08:12:53;;;;;;;24.75;23.25;;;;;;;;;;5115376;28;20193;-76
2022/08/12 08:15:20;;;;;;;19.73;18.52;;;;;;;;;;5115522;28;20189;-76
2022/08/12 08:18:01;;;;;;;19.75;18.52;;;;;;;;;;5115385;28;20199;-77
2022/08/12 08:20:32;;;;;;;19.85;18.55;;;;;;;;;;5115256;28;20601;-77
2022/08/12 08:23:02;;;;;;;19.95;18.65;;;;;;;;;;5115216;28;20220;-76
2022/08/12 08:25:31;;;;;;;21.92;20.52;;;;;;;;;;5115152;28;20278;-76
2022/08/12 08:27:59;;;;;;;19.70;18.40;;;;;;;;;;5115149;28;20189;-75
2022/08/12 08:30:26;;;;;;;19.35;18.15;;;;;;;;;;5115330;28;20622;-75
2022/08/12 08:32:53;;;;;;;20.65;19.35;;;;;;;;;;5115046;28;20204;-76
2022/08/12 08:35:21;;;;;;;21.70;20.30;;;;;;;;;;5115253;28;20230;-75
2022/08/12 08:37:50;;;;;;;22.63;21.13;;;;;;;;;;5114996;28;20242;-75
2022/08/12 08:43:02;;;;;;;20.05;18.75;;;;;;;;;;5115170;28;20216;-75
2022/08/12 08:45:29;;;;;;;19.55;18.25;;;;;;;;;;5115046;28;20204;-75
2022/08/12 08:47:58;;;;;;;20.00;18.70;;;;;;;;;;5114975;28;20225;-76
2022/08/12 08:50:24;;;;;;;20.33;19.02;;;;;;;;;;5114682;28;20246;-75
2022/08/12 08:52:53;;;;;;;20.35;19.05;;;;;;;;;;5114850;28;20193;-78
2022/08/12 08:55:20;;;;;;;20.58;19.23;;;;;;;;;;5114671;28;20189;-76
2022/08/12 08:57:49;;;;;;;21.92;20.52;;;;;;;;;;5114537;28;20709;-78
2022/08/12 09:00:17;;;;;;;20.42;19.13;;;;;;;;;;5114486;28;20219;-78
2022/08/12 09:02:44;;;;;;;20.45;19.15;;;;;;;;;;5114084;28;20221;-75
2022/08/12 09:05:11;;;;;;;20.63;19.33;;;;;;;;;;5114453;28;20284;-76
2022/08/12 09:07:43;;;;;;;19.45;18.15;;;;;;;;;;5114289;28;20578;-75
2022/08/12 09:10:12;;;;;;;19.60;18.30;;;;;;;;;;5115565;28;20193;-77
2022/08/12 09:15:24;;;;;;;19.80;18.50;;;;;;;;;;5115020;28;20273;-76
2022/08/12 09:17:51;;;;;;;20.02;18.73;;;;;;;;;;5114481;28;20200;-76
2022/08/12 09:20:20;;;;;;;19.85;18.55;;;;;;;;;;5114002;28;20311;-74
2022/08/12 09:22:48;;;;;;;20.02;18.73;;;;;;;;;;5114182;28;20311;-76
2022/08/12 09:25:17;;;;;;;26.25;24.55;;;;;;;;;;5114011;28;20576;-75
2022/08/12 09:27:44;;;;;;;20.00;18.70;;;;;;;;;;5114290;28;20201;-76
2022/08/12 09:30:14;;;;;;;19.80;18.50;;;;;;;;;;5113980;28;20197;-73
2022/08/12 09:32:49;;;;;;;20.15;18.75;;;;;;;;;;5113828;28;20196;-76
2022/08/12 09:35:22;;;;;;;20.50;19.10;;;;;;;;;;5113817;28;20185;-76
2022/08/12 09:37:49;;;;;;;20.45;19.05;;;;;;;;;;5114273;28;20258;-78
2022/08/12 09:40:18;;;;;;;20.05;18.75;;;;;;;;;;5113793;28;20675;-78
2022/08/12 09:45:31;;;;;;;20.42;19.08;;;;;;;;;;5113869;28;20616;-76
2022/08/12 09:48:00;;;;;;;19.90;18.60;;;;;;;;;;5113613;28;20275;-78
2022/08/12 09:50:27;;;;;;;19.95;18.65;;;;;;;;;;5113811;28;20197;-75
2022/08/12 09:53:04;;;;;;;19.52;18.25;;;;;;;;;;5113781;28;20280;-76
2022/08/12 09:55:33;;;;;;;19.95;18.65;;;;;;;;;;5113867;28;20643;-77
2022/08/12 09:58:00;;;;;;;20.10;18.80;;;;;;;;;;5113710;28;20193;-76
2022/08/12 10:00:27;;;;;;;20.05;18.75;;;;;;;;;;5113717;28;20262;-74
2022/08/12 10:03:01;;;;;;;19.70;18.40;;;;;;;;;;5113164;28;20225;-78
2022/08/12 10:05:31;;;;;;;19.50;18.23;;;;;;;;;;5113566;28;20200;-76
2022/08/12 10:07:59;;;;;;;19.75;18.45;;;;;;;;;;5113209;28;20605;-78
2022/08/12 10:10:26;;;;;;;19.60;18.30;;;;;;;;;;5113133;28;20190;-77
2022/08/12 10:15:43;;;;;;;19.85;18.52;;;;;;;;;;5113311;28;20646;-78
2022/08/12 10:18:11;;;;;;;19.60;18.27;;;;;;;;;;5113074;28;20292;-76
2022/08/12 10:20:38;;;;;;;19.98;18.58;;;;;;;;;;5112955;28;20275;-72
2022/08/12 10:23:05;;;;;;;19.42;18.13;;;;;;;;;;5112838;28;20216;-76
